Chenois Creek, Washington
Current Conditions -  °F | °C
As of 12:53 AM on Friday 28 Nov 2014 (Local Time) from KHQM Reporting Station
Light Rain Light Rain  
Wind Chill: 55°   Ceiling: 1200
Heat Index: 55°   Visibility: 5mi
Dew Point: 53°   Wind: 23mph
Humidity: 93%   Direction: 190°S
Pressure: 29.69"   Gusts: 31mph
Location:  47.0202°N, 123.878°W
Report Text: KHQM 280853Z AUTO 19020G27KT 5SM -RA BR BKN012 OVC022 13/12 A2969 RMK AO2 PK WND 18028/0811 SLP057 P0002 60005 T01280117 57016
Loading
Personal Weather Stations






























Interactive Weather Map New forecast layout! Learn more

10-Day Weather Forecast

Advertisements
Track Severe Weather on mobile